Time;durP1;ratioP1;P1;durP2;ratioP2;P2;SDS_P1;SDS_P2;PMS_P1;PMS_P2;Temp;Humidity;BMP_temperature;BMP_pressure;BME280_temperature;BME280_humidity;BME280_pressure;Samples;Min_cycle;Max_cycle;Signal;HPM_P1;HPM_P2
2023/03/06 00:01:01;;;;;;;16.17;10.68;;;21.70;31.30;;;;;;5054627;28;20080;-61
2023/03/06 00:03:28;;;;;;;16.02;11.48;;;21.70;31.30;;;;;;5055174;28;20135;-61
2023/03/06 00:05:57;;;;;;;15.40;11.07;;;21.70;31.30;;;;;;5055090;28;20057;-61
2023/03/06 00:08:27;;;;;;;16.40;11.07;;;21.70;31.30;;;;;;5054860;28;20053;-61
2023/03/06 00:10:55;;;;;;;16.73;11.25;;;21.70;31.30;;;;;;5054665;28;20128;-61
2023/03/06 00:13:23;;;;;;;18.63;11.35;;;21.70;31.30;;;;;;5054984;28;20095;-61
2023/03/06 00:15:50;;;;;;;16.58;11.02;;;21.70;31.30;;;;;;5054913;28;20136;-61
2023/03/06 00:18:17;;;;;;;18.00;11.80;;;21.70;31.30;;;;;;5054831;28;20048;-61
2023/03/06 00:20:45;;;;;;;17.77;11.82;;;21.70;31.30;;;;;;5055123;28;20120;-61
2023/03/06 00:23:12;;;;;;;17.83;11.43;;;21.60;31.30;;;;;;5054538;28;20048;-61
2023/03/06 00:25:43;;;;;;;17.95;12.15;;;21.60;31.30;;;;;;5054617;28;20056;-61
2023/03/06 00:28:13;;;;;;;17.52;11.30;;;21.60;31.30;;;;;;5055031;28;20049;-60
2023/03/06 00:30:41;;;;;;;15.68;10.68;;;21.60;31.30;;;;;;5054154;28;20059;-61
2023/03/06 00:33:08;;;;;;;16.75;11.98;;;21.60;31.30;;;;;;5054243;28;20080;-61
2023/03/06 00:35:38;;;;;;;16.70;11.00;;;21.60;31.40;;;;;;5054767;28;20045;-61
2023/03/06 00:38:05;;;;;;;15.70;10.63;;;21.60;31.40;;;;;;5054000;28;20044;-61
2023/03/06 00:40:32;;;;;;;16.80;11.07;;;21.60;31.30;;;;;;5052148;28;20544;-60
2023/03/06 00:42:59;;;;;;;15.57;10.85;;;21.60;31.40;;;;;;5054564;28;20080;-61
2023/03/06 00:45:27;;;;;;;16.08;10.95;;;21.60;31.30;;;;;;5054711;28;20045;-61
2023/03/06 00:47:54;;;;;;;17.83;11.43;;;21.60;31.30;;;;;;5053942;28;20103;-61
2023/03/06 00:50:21;;;;;;;16.77;10.93;;;21.60;31.40;;;;;;5053210;28;20095;-61
2023/03/06 00:52:48;;;;;;;15.95;9.90;;;21.60;31.40;;;;;;5054300;28;20131;-61
2023/03/06 00:55:16;;;;;;;16.10;11.07;;;21.50;31.40;;;;;;5054173;28;20045;-61
2023/03/06 00:57:43;;;;;;;14.68;10.10;;;21.60;31.40;;;;;;5054283;28;20457;-61
2023/03/06 01:00:12;;;;;;;17.02;11.02;;;21.60;31.40;;;;;;5054045;28;20059;-61
2023/03/06 01:02:39;;;;;;;16.58;10.45;;;21.60;31.40;;;;;;5054247;28;20041;-61
2023/03/06 01:05:07;;;;;;;15.00;10.07;;;21.60;31.40;;;;;;5053749;28;20056;-61
2023/03/06 01:07:35;;;;;;;16.48;10.35;;;21.50;31.30;;;;;;5054173;28;20120;-61
2023/03/06 01:10:04;;;;;;;15.02;10.23;;;21.60;31.40;;;;;;5054200;28;20461;-61
2023/03/06 01:12:31;;;;;;;16.35;10.25;;;21.50;31.30;;;;;;5053885;28;20504;-61
2023/03/06 01:14:59;;;;;;;13.43;9.63;;;21.50;31.30;;;;;;5053787;28;20135;-61
2023/03/06 01:17:26;;;;;;;14.07;9.45;;;21.50;31.40;;;;;;5053722;28;20109;-61
2023/03/06 01:19:53;;;;;;;12.38;9.32;;;21.50;31.30;;;;;;5053659;28;20044;-61
2023/03/06 01:22:20;;;;;;;13.48;9.48;;;21.50;31.40;;;;;;5053300;28;20087;-61
2023/03/06 01:24:47;;;;;;;14.43;9.32;;;21.50;31.40;;;;;;5053689;28;20552;-61
2023/03/06 01:27:14;;;;;;;14.32;9.32;;;21.50;31.40;;;;;;5053667;28;20049;-61
2023/03/06 01:29:41;;;;;;;13.30;8.90;;;21.50;31.30;;;;;;5053216;28;20059;-61
2023/03/06 01:32:08;;;;;;;12.73;8.98;;;21.50;31.40;;;;;;5053877;28;20055;-61
2023/03/06 01:34:36;;;;;;;13.48;8.30;;;21.50;31.30;;;;;;5053520;28;20144;-60
2023/03/06 01:37:03;;;;;;;12.02;8.93;;;21.50;31.30;;;;;;5052137;28;20049;-61
2023/03/06 01:39:30;;;;;;;12.45;8.82;;;21.60;31.40;;;;;;5053127;28;20056;-61
2023/03/06 01:41:57;;;;;;;13.77;8.60;;;21.50;31.30;;;;;;5053099;28;20049;-61
2023/03/06 01:44:24;;;;;;;13.45;8.63;;;21.50;31.30;;;;;;5053229;28;20080;-61
2023/03/06 01:46:51;;;;;;;11.38;8.20;;;21.60;31.40;;;;;;5053197;28;20053;-61
2023/03/06 01:49:29;;;;;;;11.23;7.78;;;21.50;31.30;;;;;;5053414;28;20067;-61
2023/03/06 01:52:02;;;;;;;10.32;7.47;;;21.60;31.40;;;;;;5053444;28;20408;-61
2023/03/06 01:54:51;;;;;;;13.13;8.50;;;21.50;31.30;;;;;;5052811;28;20044;-61
2023/03/06 01:57:25;;;;;;;9.35;7.00;;;21.50;31.30;;;;;;5053036;28;20080;-61
2023/03/06 02:00:00;;;;;;;11.70;7.95;;;21.50;31.30;;;;;;5053590;28;20439;-61
2023/03/06 02:02:28;;;;;;;10.95;7.80;;;21.50;31.40;;;;;;5053297;28;20130;-61
2023/03/06 02:04:55;;;;;;;12.13;7.82;;;21.50;31.30;;;;;;5052999;28;20045;-61
2023/03/06 02:07:23;;;;;;;10.95;8.27;;;21.50;31.40;;;;;;5052943;28;20047;-61
2023/03/06 02:09:51;;;;;;;10.30;7.20;;;21.50;31.30;;;;;;5051703;28;20518;-61
2023/03/06 02:12:19;;;;;;;10.45;7.03;;;21.50;31.30;;;;;;5052097;28;20132;-61
2023/03/06 02:14:47;;;;;;;9.82;7.32;;;21.50;31.40;;;;;;5052947;28;20045;-61
2023/03/06 02:17:17;;;;;;;11.55;7.43;;;21.50;31.40;;;;;;5052847;28;20076;-61
2023/03/06 02:20:09;;;;;;;11.55;7.57;;;21.50;31.40;;;;;;5057447;28;20044;-61
2023/03/06 02:22:44;;;;;;;9.57;6.80;;;21.50;31.40;;;;;;5059588;28;20056;-61
2023/03/06 02:25:46;;;;;;;10.70;7.43;;;21.50;31.40;;;;;;5059227;28;20136;-61
2023/03/06 02:28:21;;;;;;;9.52;6.90;;;21.50;31.40;;;;;;5059164;28;20131;-61
2023/03/06 02:30:54;;;;;;;10.65;6.97;;;21.50;31.40;;;;;;5058182;28;20066;-61
2023/03/06 02:33:25;;;;;;;9.23;6.70;;;21.50;31.40;;;;;;5059395;28;20045;-61
2023/03/06 02:35:56;;;;;;;8.73;6.47;;;21.50;31.30;;;;;;5059393;28;20056;-61
2023/03/06 02:38:32;;;;;;;10.20;6.32;;;21.50;31.30;;;;;;5058215;28;20056;-61
2023/03/06 02:41:02;;;;;;;9.13;6.13;;;21.50;31.40;;;;;;5058717;28;20051;-61
2023/03/06 02:43:34;;;;;;;8.18;6.30;;;21.50;31.40;;;;;;5058360;28;20128;-61
2023/03/06 02:46:01;;;;;;;8.05;6.32;;;21.50;31.40;;;;;;5057896;28;20127;-61
2023/03/06 02:48:28;;;;;;;8.90;5.90;;;21.50;31.40;;;;;;5059294;28;20106;-61
2023/03/06 02:50:56;;;;;;;9.43;6.57;;;21.50;31.40;;;;;;5059447;28;20119;-61
2023/03/06 02:53:23;;;;;;;8.75;6.32;;;21.50;31.40;;;;;;5059609;28;20048;-61
2023/03/06 02:55:50;;;;;;;8.30;6.38;;;21.50;31.40;;;;;;5058307;28;20041;-61
2023/03/06 02:58:21;;;;;;;7.68;5.53;;;21.50;31.40;;;;;;5059027;28;20103;-61
2023/03/06 03:00:48;;;;;;;9.15;5.93;;;21.50;31.40;;;;;;5059260;28;20131;-62
2023/03/06 03:03:16;;;;;;;7.40;5.30;;;21.50;31.40;;;;;;5059042;28;20049;-61
2023/03/06 03:05:43;;;;;;;8.98;5.90;;;21.50;31.40;;;;;;5058576;28;20053;-61
2023/03/06 03:08:12;;;;;;;7.65;5.82;;;21.50;31.40;;;;;;5058711;28;20053;-61
2023/03/06 03:10:39;;;;;;;6.63;5.57;;;21.50;31.40;;;;;;5058422;28;20045;-61
2023/03/06 03:13:06;;;;;;;8.23;5.57;;;21.40;31.40;;;;;;5059093;28;20436;-61
2023/03/06 03:15:33;;;;;;;7.45;5.65;;;21.50;31.40;;;;;;5059055;28;20135;-61
2023/03/06 03:18:01;;;;;;;6.35;4.78;;;21.40;31.40;;;;;;5058237;28;20481;-61
2023/03/06 03:20:28;;;;;;;7.07;4.70;;;21.40;31.40;;;;;;5059363;28;20463;-61
2023/03/06 03:22:55;;;;;;;7.88;5.28;;;21.40;31.40;;;;;;5059238;28;20390;-61
2023/03/06 03:25:24;;;;;;;6.95;5.28;;;21.40;31.40;;;;;;5057522;28;20509;-61
2023/03/06 03:27:51;;;;;;;6.57;5.03;;;21.40;31.40;;;;;;5057954;28;20053;-63
2023/03/06 03:30:19;;;;;;;7.00;5.65;;;21.40;31.40;;;;;;5056818;28;20049;-61
2023/03/06 03:32:46;;;;;;;7.53;5.32;;;21.40;31.40;;;;;;5055873;28;20084;-61
2023/03/06 03:35:13;;;;;;;6.00;4.85;;;21.40;31.40;;;;;;5055243;28;20164;-61
2023/03/06 03:37:40;;;;;;;7.15;5.22;;;21.40;31.40;;;;;;5055771;28;20080;-61
2023/03/06 03:40:09;;;;;;;6.78;5.10;;;21.40;31.40;;;;;;5055937;28;20041;-61
2023/03/06 03:42:36;;;;;;;5.70;4.20;;;21.40;31.40;;;;;;5055819;28;20049;-61
2023/03/06 03:45:04;;;;;;;5.68;4.70;;;21.40;31.40;;;;;;5055417;28;20045;-61
2023/03/06 03:47:31;;;;;;;7.28;5.18;;;21.40;31.40;;;;;;5055427;28;20088;-61
2023/03/06 03:49:58;;;;;;;5.82;4.53;;;21.40;31.40;;;;;;5055386;28;20080;-61
2023/03/06 03:52:25;;;;;;;7.43;4.60;;;21.40;31.40;;;;;;5053986;28;20540;-61
2023/03/06 03:54:53;;;;;;;5.88;4.45;;;21.50;31.40;;;;;;5055395;28;20164;-61
2023/03/06 03:57:20;;;;;;;6.47;4.65;;;21.40;31.40;;;;;;5054717;28;20099;-61
2023/03/06 03:59:47;;;;;;;5.68;4.80;;;21.40;31.40;;;;;;5055253;28;20053;-61
2023/03/06 04:02:14;;;;;;;6.22;5.15;;;21.40;31.40;;;;;;5055598;28;20049;-61
2023/03/06 04:04:42;;;;;;;4.95;4.30;;;21.40;31.40;;;;;;5054896;28;20477;-61
2023/03/06 04:07:09;;;;;;;7.25;4.93;;;21.40;31.40;;;;;;5053628;28;20496;-61
2023/03/06 04:09:36;;;;;;;5.68;4.57;;;21.40;31.40;;;;;;5055107;28;20053;-61
2023/03/06 04:12:04;;;;;;;5.95;4.85;;;21.40;31.40;;;;;;5054227;28;20497;-61
2023/03/06 04:14:31;;;;;;;5.43;3.90;;;21.40;31.40;;;;;;5055294;28;20455;-61
2023/03/06 04:16:58;;;;;;;6.03;4.70;;;21.40;31.50;;;;;;5054852;28;20049;-61
2023/03/06 04:19:25;;;;;;;8.48;4.80;;;21.40;31.40;;;;;;5054675;28;20110;-61
2023/03/06 04:21:52;;;;;;;6.60;4.68;;;21.40;31.40;;;;;;5054293;28;20098;-61
2023/03/06 04:24:19;;;;;;;7.03;4.43;;;21.40;31.40;;;;;;5054447;28;20053;-61
2023/03/06 04:26:47;;;;;;;5.20;4.20;;;21.40;31.40;;;;;;5054177;28;20049;-61
2023/03/06 04:29:14;;;;;;;5.22;3.88;;;21.40;31.40;;;;;;5054970;28;20057;-61
2023/03/06 04:31:41;;;;;;;4.80;4.10;;;21.40;31.40;;;;;;5056132;28;20080;-61
2023/03/06 04:34:09;;;;;;;5.55;4.07;;;21.40;31.40;;;;;;5064043;28;20091;-61
2023/03/06 04:36:36;;;;;;;4.88;3.67;;;21.40;31.40;;;;;;5074566;28;20055;-61
2023/03/06 04:39:03;;;;;;;4.93;4.20;;;21.40;31.40;;;;;;5061149;28;20128;-61
2023/03/06 04:41:30;;;;;;;5.45;4.07;;;21.40;31.40;;;;;;5053174;28;20045;-61
2023/03/06 04:43:58;;;;;;;4.63;4.18;;;21.40;31.40;;;;;;5054529;28;20059;-61
2023/03/06 04:46:25;;;;;;;5.63;4.15;;;21.40;31.40;;;;;;5054080;28;20052;-61
2023/03/06 04:48:52;;;;;;;4.75;3.80;;;21.40;31.40;;;;;;5053848;28;20087;-61
2023/03/06 04:51:19;;;;;;;4.90;3.80;;;21.40;31.40;;;;;;5052177;28;20049;-61
2023/03/06 04:53:46;;;;;;;6.13;3.97;;;21.40;31.40;;;;;;5048409;28;20041;-61
2023/03/06 04:56:13;;;;;;;5.47;4.10;;;21.40;31.40;;;;;;5045915;28;20489;-61
2023/03/06 04:58:43;;;;;;;4.43;3.92;;;21.40;31.40;;;;;;5043112;28;20041;-61
2023/03/06 05:01:11;;;;;;;4.40;3.70;;;21.30;31.40;;;;;;5053964;28;20127;-61
2023/03/06 05:03:38;;;;;;;5.93;3.95;;;21.40;32.00;;;;;;5054385;28;20111;-61
2023/03/06 05:06:05;;;;;;;4.70;4.10;;;21.40;31.40;;;;;;5053889;28;20045;-61
2023/03/06 05:08:33;;;;;;;5.05;4.25;;;21.40;31.40;;;;;;5053834;28;20103;-61
2023/03/06 05:11:01;;;;;;;4.63;4.05;;;21.40;31.40;;;;;;5054055;28;20553;-61
2023/03/06 05:13:28;;;;;;;4.72;3.85;;;21.40;31.40;;;;;;5052249;28;20040;-61
2023/03/06 05:16:04;;;;;;;4.55;3.70;;;21.40;31.40;;;;;;5053099;28;20049;-61
2023/03/06 05:18:33;;;;;;;4.85;3.60;;;21.40;31.40;;;;;;5053018;28;20045;-61
2023/03/06 05:21:01;;;;;;;5.32;3.55;;;21.40;31.40;;;;;;5052129;28;20041;-61
2023/03/06 05:23:30;;;;;;;5.20;3.97;;;21.40;31.50;;;;;;5050076;28;20049;-61
2023/03/06 05:25:58;;;;;;;5.35;3.97;;;21.40;31.40;;;;;;5048195;28;20131;-61
2023/03/06 05:28:25;;;;;;;4.30;3.85;;;21.40;31.40;;;;;;5053894;28;20072;-61
2023/03/06 05:30:53;;;;;;;4.35;3.17;;;21.30;31.90;;;;;;5053054;28;20080;-61
2023/03/06 05:33:20;;;;;;;4.85;3.88;;;21.40;31.50;;;;;;5052628;28;20122;-61
2023/03/06 05:35:48;;;;;;;4.55;3.78;;;21.30;31.40;;;;;;5046758;28;20057;-61
2023/03/06 05:38:16;;;;;;;8.50;4.70;;;21.30;31.30;;;;;;5053257;28;20496;-61
2023/03/06 05:40:44;;;;;;;8.63;5.85;;;21.40;31.20;;;;;;5050137;28;20091;-61
2023/03/06 05:43:11;;;;;;;9.40;5.75;;;21.40;31.10;;;;;;5047541;28;20467;-61
2023/03/06 05:45:38;;;;;;;7.30;5.03;;;21.40;31.10;;;;;;5048850;28;20083;-61
2023/03/06 05:48:06;;;;;;;7.15;5.10;;;21.40;31.10;;;;;;5039928;28;20076;-60
2023/03/06 05:50:34;;;;;;;7.03;5.28;;;21.30;31.10;;;;;;5047870;28;20055;-61
2023/03/06 05:53:02;;;;;;;9.52;6.05;;;21.30;31.10;;;;;;5050693;28;20450;-61
2023/03/06 05:55:29;;;;;;;9.82;5.40;;;21.30;31.10;;;;;;5052644;28;20117;-61
2023/03/06 05:57:56;;;;;;;8.38;5.32;;;21.30;31.10;;;;;;5052730;28;20045;-61
2023/03/06 06:00:24;;;;;;;6.85;4.88;;;21.30;31.00;;;;;;5052496;28;20132;-61
2023/03/06 06:02:51;;;;;;;6.70;5.13;;;21.30;31.00;;;;;;5049886;28;20114;-60
2023/03/06 06:05:18;;;;;;;7.68;5.45;;;21.40;31.10;;;;;;5049668;28;20493;-61
2023/03/06 06:07:45;;;;;;;7.78;5.55;;;21.40;31.00;;;;;;5048947;28;20087;-61
2023/03/06 06:10:13;;;;;;;8.80;5.50;;;21.40;30.90;;;;;;5048439;28;20049;-60
2023/03/06 06:12:40;;;;;;;8.40;5.50;;;21.40;30.90;;;;;;5048931;28;20440;-60
2023/03/06 06:15:08;;;;;;;10.05;5.72;;;21.50;30.90;;;;;;5049842;28;20110;-60
2023/03/06 06:17:35;;;;;;;8.77;5.88;;;21.50;30.90;;;;;;5048236;28;20041;-60
2023/03/06 06:20:03;;;;;;;7.22;4.72;;;21.50;30.90;;;;;;5045903;28;20083;-60
2023/03/06 06:22:30;;;;;;;7.32;6.00;;;21.60;31.00;;;;;;5045482;28;20041;-58
2023/03/06 06:24:57;;;;;;;6.85;5.38;;;21.60;31.00;;;;;;5041900;28;20496;-60
2023/03/06 06:27:24;;;;;;;8.85;5.60;;;21.70;31.00;;;;;;5045892;28;20506;-59
2023/03/06 06:29:52;;;;;;;7.88;5.93;;;21.70;31.10;;;;;;5041392;28;20144;-59
2023/03/06 06:32:19;;;;;;;7.47;5.70;;;21.80;31.10;;;;;;5045672;28;20077;-60
2023/03/06 06:34:46;;;;;;;14.57;6.95;;;21.80;31.00;;;;;;5040072;28;20056;-58
2023/03/06 06:37:13;;;;;;;8.52;5.95;;;21.80;31.00;;;;;;5040004;28;20659;-59
2023/03/06 06:39:41;;;;;;;7.50;5.53;;;21.90;30.90;;;;;;5040763;28;20444;-58
2023/03/06 06:42:09;;;;;;;8.38;5.93;;;22.00;31.30;;;;;;5039503;28;20041;-59
2023/03/06 06:44:56;;;;;;;11.85;6.20;;;22.00;31.30;;;;;;5042121;28;20045;-59
2023/03/06 06:47:23;;;;;;;8.02;5.68;;;22.00;31.30;;;;;;5038024;28;20064;-59
2023/03/06 06:49:54;;;;;;;8.32;5.22;;;22.00;31.20;;;;;;5045401;28;20103;-59
2023/03/06 06:52:23;;;;;;;7.85;5.53;;;22.10;31.20;;;;;;5041828;28;20057;-59
2023/03/06 06:54:51;;;;;;;14.05;5.72;;;22.10;31.00;;;;;;5043575;28;20049;-61
2023/03/06 06:57:18;;;;;;;10.63;6.00;;;22.20;31.10;;;;;;5039556;28;20056;-59
2023/03/06 06:59:45;;;;;;;9.93;6.47;;;22.20;31.40;;;;;;5041234;28;20088;-61
2023/03/06 07:02:15;;;;;;;9.75;6.13;;;22.30;31.70;;;;;;5036997;28;20080;-59
2023/03/06 07:04:43;;;;;;;8.37;5.80;;;22.30;31.70;;;;;;5042691;28;20144;-60
2023/03/06 07:07:29;;;;;;;8.35;6.22;;;22.40;31.80;;;;;;5047619;28;20057;-59
2023/03/06 07:09:57;;;;;;;7.55;5.78;;;22.40;31.70;;;;;;5045763;28;20132;-58
2023/03/06 07:12:24;;;;;;;10.82;5.93;;;22.40;31.60;;;;;;5043014;28;20148;-58
2023/03/06 07:14:51;;;;;;;11.30;6.38;;;22.50;31.70;;;;;;5048192;28;20099;-60
2023/03/06 07:17:18;;;;;;;9.65;5.60;;;22.50;31.70;;;;;;5046163;28;20103;-58
2023/03/06 07:19:46;;;;;;;9.95;5.90;;;22.60;31.80;;;;;;5043230;28;20458;-56
2023/03/06 07:22:14;;;;;;;10.98;6.63;;;22.60;31.90;;;;;;5041960;28;20135;-56
2023/03/06 07:24:41;;;;;;;9.75;5.60;;;22.60;31.90;;;;;;5039637;28;20049;-58
2023/03/06 07:27:08;;;;;;;8.82;5.93;;;22.70;31.60;;;;;;5045510;28;20799;-59
2023/03/06 07:29:36;;;;;;;9.20;6.43;;;22.80;31.50;;;;;;5045235;28;20049;-60
2023/03/06 07:32:03;;;;;;;11.23;7.50;;;22.80;31.50;;;;;;5044660;28;20467;-59
2023/03/06 07:34:31;;;;;;;11.93;6.88;;;22.80;31.50;;;;;;5045068;28;20048;-58
2023/03/06 07:36:58;;;;;;;12.00;6.72;;;22.80;31.40;;;;;;5044739;28;20056;-59
2023/03/06 07:39:26;;;;;;;14.73;7.13;;;22.90;31.60;;;;;;5042378;28;20132;-58
2023/03/06 07:41:54;;;;;;;12.43;6.85;;;22.90;31.50;;;;;;5045208;28;20497;-59
2023/03/06 07:44:21;;;;;;;9.85;6.45;;;22.90;31.40;;;;;;5043752;28;20132;-59
2023/03/06 07:46:49;;;;;;;12.95;7.00;;;22.90;31.30;;;;;;5043696;28;20095;-59
2023/03/06 07:49:16;;;;;;;10.25;6.55;;;22.90;31.20;;;;;;5046766;28;20136;-60
2023/03/06 07:51:44;;;;;;;12.65;6.22;;;23.00;31.20;;;;;;5046239;28;20048;-61
2023/03/06 07:54:11;;;;;;;11.85;7.40;;;23.00;31.00;;;;;;5046315;28;20060;-60
2023/03/06 07:56:38;;;;;;;13.50;7.70;;;23.00;31.00;;;;;;5044819;28;20083;-61
2023/03/06 07:59:05;;;;;;;11.18;6.57;;;23.00;30.90;;;;;;5046561;28;20436;-58
2023/03/06 08:01:33;;;;;;;13.55;7.45;;;23.00;30.90;;;;;;5044164;28;20730;-58
2023/03/06 08:04:00;;;;;;;14.82;8.48;;;23.10;30.80;;;;;;5044588;28;20413;-60
2023/03/06 08:06:28;;;;;;;21.23;9.15;;;23.10;30.90;;;;;;5046124;28;20048;-59
2023/03/06 08:08:56;;;;;;;22.17;9.70;;;23.10;30.80;;;;;;5041711;28;20085;-59
2023/03/06 08:11:27;;;;;;;20.35;10.50;;;23.10;30.70;;;;;;5038687;28;20136;-58
2023/03/06 08:13:55;;;;;;;20.77;9.73;;;23.20;30.50;;;;;;5043614;28;20076;-59
2023/03/06 08:16:25;;;;;;;23.25;9.60;;;23.20;30.60;;;;;;5046881;28;20401;-60
2023/03/06 08:18:53;;;;;;;26.67;10.57;;;23.20;30.50;;;;;;5044148;28;20053;-59
2023/03/06 08:21:24;;;;;;;25.50;10.70;;;23.30;30.50;;;;;;5044945;28;20057;-60
2023/03/06 08:23:52;;;;;;;19.90;10.55;;;23.30;30.40;;;;;;5040573;28;20065;-60
2023/03/06 08:26:24;;;;;;;21.08;9.27;;;23.40;30.40;;;;;;5043396;28;20052;-61
2023/03/06 08:28:53;;;;;;;18.52;9.68;;;23.40;30.10;;;;;;5044799;28;20043;-61
2023/03/06 08:31:30;;;;;;;16.13;8.35;;;23.50;30.00;;;;;;5045838;28;20052;-60
2023/03/06 08:34:00;;;;;;;18.80;9.18;;;23.60;29.90;;;;;;5043722;28;20045;-60
2023/03/06 08:36:28;;;;;;;17.95;8.43;;;23.60;29.80;;;;;;5046665;28;20122;-61
2023/03/06 08:38:56;;;;;;;15.80;8.82;;;23.70;30.00;;;;;;5029258;28;20057;-61
2023/03/06 08:41:25;;;;;;;18.13;8.77;;;23.70;29.90;;;;;;5045478;28;20053;-60
2023/03/06 08:43:52;;;;;;;22.40;9.65;;;23.70;29.80;;;;;;5046432;28;20165;-59
2023/03/06 08:46:22;;;;;;;18.25;9.77;;;23.80;29.80;;;;;;5043704;28;20079;-60
2023/03/06 08:48:49;;;;;;;22.25;9.75;;;23.90;29.80;;;;;;5044295;28;20140;-62
2023/03/06 08:51:17;;;;;;;19.77;9.65;;;23.90;30.30;;;;;;5042644;28;20095;-60
2023/03/06 08:53:45;;;;;;;18.80;10.00;;;23.90;29.80;;;;;;5043560;28;20076;-61
2023/03/06 08:56:21;;;;;;;24.05;10.88;;;24.00;29.80;;;;;;5044078;28;20076;-61
2023/03/06 08:58:49;;;;;;;24.30;11.52;;;24.00;29.80;;;;;;5043189;28;20053;-61
2023/03/06 09:01:19;;;;;;;25.92;11.00;;;24.10;29.80;;;;;;5045184;28;20132;-60
2023/03/06 09:03:46;;;;;;;27.63;12.52;;;24.10;29.70;;;;;;5043404;28;20049;-60
2023/03/06 09:06:13;;;;;;;26.30;11.15;;;24.10;29.70;;;;;;5040702;28;20976;-59
2023/03/06 09:08:43;;;;;;;24.85;11.38;;;24.20;29.70;;;;;;5042326;28;20069;-59
2023/03/06 09:11:13;;;;;;;31.95;12.55;;;24.20;29.60;;;;;;5044309;28;20164;-61
2023/03/06 09:13:42;;;;;;;27.60;11.85;;;24.20;29.50;;;;;;5043746;28;20052;-61
2023/03/06 09:16:10;;;;;;;25.63;12.30;;;24.30;29.60;;;;;;5045831;28;20071;-59
2023/03/06 09:18:38;;;;;;;24.90;10.95;;;24.30;29.50;;;;;;5040230;28;20100;-60
2023/03/06 09:21:06;;;;;;;22.13;10.65;;;24.30;29.40;;;;;;5045130;28;20554;-59
2023/03/06 09:23:35;;;;;;;21.17;10.38;;;24.40;29.40;;;;;;5040607;28;20077;-57
2023/03/06 09:26:02;;;;;;;27.90;12.73;;;24.50;29.30;;;;;;5043832;28;20128;-60
2023/03/06 09:28:29;;;;;;;23.98;10.32;;;24.50;29.30;;;;;;5043956;28;20073;-59
2023/03/06 09:30:56;;;;;;;23.48;10.80;;;24.50;29.30;;;;;;5042317;28;20724;-59
2023/03/06 09:36:24;;;;;;;24.30;11.90;;;24.60;29.20;;;;;;4948202;23;20043;-58
2023/03/06 09:38:51;;;;;;;23.67;11.18;;;24.70;29.10;;;;;;4953606;28;20102;-58
2023/03/06 09:41:32;;;;;;;25.05;10.68;;;24.70;29.10;;;;;;4968983;28;20054;-59
2023/03/06 09:44:07;;;;;;;22.23;10.55;;;24.70;29.10;;;;;;4967642;28;20039;-59
2023/03/06 09:47:05;;;;;;;20.65;11.23;;;24.80;28.90;;;;;;4968157;28;20089;-59
2023/03/06 09:50:03;;;;;;;24.70;10.98;;;24.80;29.10;;;;;;4972002;28;20164;-60
2023/03/06 09:52:42;;;;;;;20.30;9.73;;;24.80;29.00;;;;;;4970723;28;20484;-61
2023/03/06 09:55:16;;;;;;;22.75;10.95;;;24.80;29.10;;;;;;4968522;28;20063;-60
2023/03/06 09:58:09;;;;;;;22.00;10.50;;;24.80;29.20;;;;;;4957726;28;20069;-58
2023/03/06 10:00:41;;;;;;;21.70;10.75;;;24.80;29.20;;;;;;4974352;28;20055;-58
2023/03/06 10:03:38;;;;;;;30.55;11.43;;;24.80;29.50;;;;;;4967769;28;20055;-57
2023/03/06 10:06:29;;;;;;;23.23;10.38;;;24.90;30.00;;;;;;4977034;28;20475;-59
2023/03/06 10:09:21;;;;;;;23.50;11.10;;;24.90;29.70;;;;;;4932617;28;20057;-61
2023/03/06 10:12:03;;;;;;;18.95;9.80;;;24.90;29.60;;;;;;4968908;28;20153;-59
2023/03/06 10:14:41;;;;;;;21.10;9.57;;;24.90;29.80;;;;;;4969232;28;20128;-60
2023/03/06 10:17:16;;;;;;;20.52;10.77;;;24.90;29.40;;;;;;4974018;28;20047;-60
2023/03/06 10:19:46;;;;;;;21.17;11.10;;;24.90;29.40;;;;;;4968529;28;20052;-64
2023/03/06 10:22:31;;;;;;;19.98;10.15;;;24.90;29.30;;;;;;4973840;28;20062;-62
2023/03/06 10:25:24;;;;;;;18.67;9.57;;;25.00;29.20;;;;;;4968581;28;20475;-62
2023/03/06 10:28:14;;;;;;;21.38;10.27;;;25.00;29.20;;;;;;4947614;28;20082;-65
2023/03/06 10:30:54;;;;;;;23.80;10.27;;;25.00;29.10;;;;;;4967864;28;20050;-66
2023/03/06 10:33:52;;;;;;;25.08;10.80;;;25.00;29.40;;;;;;4968101;28;20050;-67
2023/03/06 10:36:25;;;;;;;17.90;9.70;;;25.10;29.60;;;;;;4949246;28;20325;-65
2023/03/06 10:38:55;;;;;;;20.92;10.00;;;25.10;29.70;;;;;;4954433;28;20054;-62
2023/03/06 10:41:29;;;;;;;15.88;8.45;;;25.10;30.00;;;;;;4954194;28;20058;-64
2023/03/06 10:44:17;;;;;;;17.48;8.98;;;25.20;30.00;;;;;;4978090;28;20105;-66
2023/03/06 10:46:46;;;;;;;17.67;9.13;;;25.20;29.70;;;;;;4962080;28;20050;-66
2023/03/06 10:49:35;;;;;;;18.70;8.88;;;25.20;29.60;;;;;;4975733;28;20061;-65
2023/03/06 10:52:21;;;;;;;14.95;8.48;;;25.30;29.50;;;;;;4981018;28;20054;-66
2023/03/06 10:54:48;;;;;;;13.68;7.55;;;25.30;29.50;;;;;;4974967;28;20145;-69
2023/03/06 10:57:27;;;;;;;17.40;7.90;;;25.30;29.70;;;;;;4975845;28;20387;-63
2023/03/06 10:59:59;;;;;;;17.23;8.10;;;25.30;30.40;;;;;;4973743;28;20167;-61
2023/03/06 11:02:31;;;;;;;19.05;8.20;;;25.30;29.80;;;;;;4977053;28;20055;-64
2023/03/06 11:05:00;;;;;;;17.08;8.82;;;25.30;29.50;;;;;;4981183;28;20050;-63
2023/03/06 11:07:32;;;;;;;16.38;7.60;;;25.30;29.20;;;;;;4948045;28;20046;-63
2023/03/06 11:10:17;;;;;;;11.85;7.30;;;25.30;29.20;;;;;;4972257;28;20054;-62
2023/03/06 11:13:06;;;;;;;13.93;7.07;;;25.30;29.00;;;;;;4981472;28;20057;-64
2023/03/06 11:15:34;;;;;;;12.75;7.25;;;25.30;29.40;;;;;;4974093;28;20038;-65
2023/03/06 11:18:22;;;;;;;15.57;7.57;;;25.20;29.30;;;;;;4978828;28;20499;-64
2023/03/06 11:20:52;;;;;;;12.75;7.88;;;25.20;29.30;;;;;;4976216;28;20144;-62
2023/03/06 11:23:46;;;;;;;13.00;7.03;;;25.10;29.30;;;;;;4961423;28;20503;-63
2023/03/06 11:26:30;;;;;;;12.70;7.47;;;25.10;29.20;;;;;;4979674;28;20054;-62
2023/03/06 11:29:23;;;;;;;11.98;7.05;;;25.10;29.20;;;;;;4975597;28;20129;-62
2023/03/06 11:31:55;;;;;;;12.15;7.18;;;25.10;29.20;;;;;;4961860;28;20057;-62
2023/03/06 11:34:46;;;;;;;10.18;6.38;;;25.00;29.20;;;;;;4977903;28;20141;-62
2023/03/06 11:37:41;;;;;;;11.50;6.68;;;25.10;29.30;;;;;;4962122;28;20051;-61
2023/03/06 11:40:43;;;;;;;10.35;6.68;;;25.10;29.10;;;;;;4981453;28;20512;-61
2023/03/06 11:43:22;;;;;;;10.88;6.10;;;25.10;29.20;;;;;;4979132;28;20494;-61
2023/03/06 11:45:58;;;;;;;11.20;6.53;;;25.10;29.20;;;;;;4980449;28;20470;-60
2023/03/06 11:48:44;;;;;;;11.98;6.85;;;25.20;29.20;;;;;;4978667;28;20112;-64
2023/03/06 11:51:25;;;;;;;9.30;6.13;;;25.20;29.10;;;;;;4981375;28;20047;-63
2023/03/06 11:53:53;;;;;;;10.18;6.00;;;25.30;29.60;;;;;;4979425;28;20066;-62
2023/03/06 11:56:39;;;;;;;10.63;6.40;;;25.20;29.60;;;;;;4973761;28;20078;-61
2023/03/06 11:59:29;;;;;;;12.68;5.50;;;25.30;29.20;;;;;;4970813;28;20103;-64
2023/03/06 12:02:25;;;;;;;8.90;5.55;;;25.30;29.20;;;;;;4978796;28;20708;-60
2023/03/06 12:05:32;;;;;;;9.63;6.05;;;25.30;29.30;;;;;;4970037;28;20051;-60
2023/03/06 12:08:40;;;;;;;10.45;5.05;;;25.30;29.20;;;;;;4960578;28;20130;-62
2023/03/06 12:11:25;;;;;;;10.70;6.47;;;25.30;29.20;;;;;;4962034;28;20138;-62
2023/03/06 12:14:20;;;;;;;9.10;6.22;;;25.30;29.20;;;;;;4973455;28;20137;-60
2023/03/06 12:17:05;;;;;;;9.15;5.32;;;25.30;29.10;;;;;;4973981;28;20088;-62
2023/03/06 12:20:06;;;;;;;9.18;5.47;;;25.30;29.60;;;;;;4972412;28;20084;-62
2023/03/06 12:22:46;;;;;;;9.68;5.90;;;25.30;29.10;;;;;;4972239;28;20128;-59
2023/03/06 12:25:36;;;;;;;9.05;5.88;;;25.40;29.10;;;;;;4976610;28;20134;-61
2023/03/06 12:28:40;;;;;;;13.98;6.50;;;25.40;29.20;;;;;;4956126;28;20059;-62
2023/03/06 12:31:47;;;;;;;10.95;6.63;;;25.40;29.10;;;;;;4957955;28;20074;-62
2023/03/06 12:34:54;;;;;;;11.50;6.60;;;25.40;29.10;;;;;;4975418;28;20138;-61
2023/03/06 12:37:49;;;;;;;10.38;7.10;;;25.40;29.30;;;;;;4971403;28;20458;-61
2023/03/06 12:40:35;;;;;;;12.23;7.25;;;25.40;29.20;;;;;;4974992;28;20109;-61
2023/03/06 12:43:42;;;;;;;13.80;7.38;;;25.40;29.20;;;;;;4973167;28;20077;-60
2023/03/06 12:46:20;;;;;;;11.82;6.65;;;25.40;29.10;;;;;;4979023;28;20711;-61
2023/03/06 12:49:04;;;;;;;9.65;6.07;;;25.40;29.20;;;;;;4976298;28;20055;-59
2023/03/06 12:51:32;;;;;;;11.38;7.05;;;25.40;29.30;;;;;;4974182;28;20137;-60
2023/03/06 12:54:01;;;;;;;10.45;6.85;;;25.50;29.30;;;;;;4970607;28;20499;-61
2023/03/06 12:56:30;;;;;;;11.75;7.30;;;25.40;29.40;;;;;;4975527;28;20124;-63
2023/03/06 12:59:02;;;;;;;11.82;6.90;;;25.50;29.30;;;;;;4971087;28;20085;-62
2023/03/06 13:02:00;;;;;;;10.65;6.97;;;25.50;29.20;;;;;;4970260;28;20046;-63
2023/03/06 13:04:49;;;;;;;10.88;6.10;;;25.50;29.70;;;;;;4970148;28;20375;-60
2023/03/06 13:07:45;;;;;;;14.48;6.88;;;25.50;29.50;;;;;;4976041;28;20133;-62